Time,TemperatureF,DewpointF,PressureIn,WindDirection,WindDirectionDegrees,WindSpeedMPH,WindSpeedGustMPH,Humidity,HourlyPrecipIn,Conditions,Clouds,dailyrainin,SoftwareType,DateUTC
2013-02-14 00:00:00,23.7,18.7,30.51,East,86,0.0,1.0,81,0.00,,,0.00,WeatherCatV1.11B39,2013-02-14 07:00:00,
2013-02-14 00:05:00,23.8,19.4,30.51,East,86,0.0,0.0,83,0.00,,,0.00,WeatherCatV1.11B39,2013-02-14 07:05:00,
2013-02-14 00:10:00,23.6,18.9,30.51,East,86,0.0,0.0,82,0.00,,,0.00,WeatherCatV1.11B39,2013-02-14 07:10:00,
2013-02-14 00:15:00,23.5,18.5,30.51,East,86,0.0,0.0,81,0.00,,,0.00,WeatherCatV1.11B39,2013-02-14 07:15:00,
2013-02-14 00:20:00,23.4,18.4,30.51,East,86,0.0,0.0,81,0.00,,,0.00,WeatherCatV1.11B39,2013-02-14 07:20:00,
2013-02-14 00:25:00,23.3,18.6,30.51,East,86,0.0,0.0,82,0.00,,,0.00,WeatherCatV1.11B39,2013-02-14 07:25:00,
2013-02-14 00:30:00,23.3,18.6,30.51,East,86,0.0,0.0,82,0.00,,,0.00,WeatherCatV1.11B39,2013-02-14 07:30:00,
2013-02-14 00:35:00,23.4,19.0,30.50,East,86,0.0,0.0,83,0.00,,,0.00,WeatherCatV1.11B39,2013-02-14 07:35:00,
2013-02-14 00:40:00,23.4,18.7,30.51,East,86,0.0,0.0,82,0.00,,,0.00,WeatherCatV1.11B39,2013-02-14 07:40:00,
2013-02-14 00:45:00,23.5,19.1,30.50,East,86,0.0,0.0,83,0.00,,,0.00,WeatherCatV1.11B39,2013-02-14 07:45:00,
2013-02-14 00:50:00,23.6,19.2,30.50,East,86,0.0,0.0,83,0.00,,,0.00,WeatherCatV1.11B39,2013-02-14 07:50:00,
2013-02-14 00:55:00,23.6,18.9,30.50,East,86,0.0,0.0,82,0.00,,,0.00,WeatherCatV1.11B39,2013-02-14 07:55:00,
2013-02-14 01:00:00,23.6,18.9,30.50,East,86,0.0,0.0,82,0.00,,,0.00,WeatherCatV1.11B39,2013-02-14 08:00:00,
2013-02-14 01:05:00,23.6,18.9,30.50,East,86,0.0,0.0,82,0.00,,,0.00,WeatherCatV1.11B39,2013-02-14 08:05:00,
2013-02-14 01:10:00,23.5,18.5,30.50,East,86,0.0,0.0,81,0.00,,,0.00,WeatherCatV1.11B39,2013-02-14 08:10:00,
2013-02-14 01:15:00,23.4,18.7,30.50,East,86,0.0,0.0,82,0.00,,,0.00,WeatherCatV1.11B39,2013-02-14 08:15:00,
2013-02-14 01:20:00,23.4,18.7,30.50,East,86,0.0,0.0,82,0.00,,,0.00,WeatherCatV1.11B39,2013-02-14 08:20:00,
2013-02-14 01:25:00,23.1,18.7,30.50,East,86,0.0,0.0,83,0.00,,,0.00,WeatherCatV1.11B39,2013-02-14 08:25:00,
2013-02-14 01:30:00,22.9,18.5,30.50,East,86,0.0,0.0,83,0.00,,,0.00,WeatherCatV1.11B39,2013-02-14 08:30:00,
2013-02-14 01:35:00,22.9,18.8,30.50,East,86,0.0,0.0,84,0.00,,,0.00,WeatherCatV1.11B39,2013-02-14 08:35:00,
2013-02-14 01:40:00,22.8,18.7,30.50,East,86,0.0,0.0,84,0.00,,,0.00,WeatherCatV1.11B39,2013-02-14 08:40:00,
2013-02-14 01:45:00,22.9,19.4,30.49,East,86,0.0,0.0,86,0.00,,,0.00,WeatherCatV1.11B39,2013-02-14 08:45:00,
2013-02-14 01:50:00,22.9,19.1,30.50,East,86,0.0,0.0,85,0.00,,,0.00,WeatherCatV1.11B39,2013-02-14 08:50:00,
2013-02-14 01:55:00,23.0,19.5,30.50,East,86,0.0,0.0,86,0.00,,,0.00,WeatherCatV1.11B39,2013-02-14 08:55:00,
2013-02-14 02:00:00,23.2,19.4,30.49,East,86,0.0,2.0,85,0.00,,,0.00,WeatherCatV1.11B39,2013-02-14 09:00:00,
2013-02-14 02:05:00,23.4,19.3,30.50,East,86,0.0,0.0,84,0.00,,,0.00,WeatherCatV1.11B39,2013-02-14 09:05:00,
2013-02-14 02:10:00,23.4,19.0,30.50,East,86,0.0,0.0,83,0.00,,,0.00,WeatherCatV1.11B39,2013-02-14 09:10:00,
2013-02-14 02:15:00,23.5,19.1,30.49,East,86,0.0,0.0,83,0.00,,,0.00,WeatherCatV1.11B39,2013-02-14 09:15:00,
2013-02-14 02:20:00,23.5,18.8,30.49,East,86,0.0,0.0,82,0.00,,,0.00,WeatherCatV1.11B39,2013-02-14 09:20:00,
2013-02-14 02:25:00,23.6,18.9,30.49,East,86,0.0,0.0,82,0.00,,,0.00,WeatherCatV1.11B39,2013-02-14 09:25:00,
2013-02-14 02:30:00,23.6,18.9,30.49,East,86,0.0,0.0,82,0.00,,,0.00,WeatherCatV1.11B39,2013-02-14 09:30:00,
2013-02-14 02:35:00,23.7,19.3,30.49,East,86,0.0,1.0,83,0.00,,,0.00,WeatherCatV1.11B39,2013-02-14 09:35:00,
2013-02-14 02:40:00,23.9,19.8,30.49,East,86,0.0,0.0,84,0.00,,,0.00,WeatherCatV1.11B39,2013-02-14 09:40:00,
2013-02-14 02:45:00,23.9,19.5,30.49,East,86,0.0,0.0,83,0.00,,,0.00,WeatherCatV1.11B39,2013-02-14 09:45:00,
2013-02-14 02:50:00,23.9,19.2,30.49,East,86,0.0,0.0,82,0.00,,,0.00,WeatherCatV1.11B39,2013-02-14 09:50:00,
2013-02-14 02:55:00,23.9,18.9,30.48,East,86,0.0,0.0,81,0.00,,,0.00,WeatherCatV1.11B39,2013-02-14 09:55:00,
2013-02-14 03:00:00,23.9,18.9,30.48,East,86,0.0,0.0,81,0.00,,,0.00,WeatherCatV1.11B39,2013-02-14 10:00:00,
2013-02-14 03:05:00,23.8,18.8,30.48,East,86,0.0,0.0,81,0.00,,,0.00,WeatherCatV1.11B39,2013-02-14 10:05:00,
2013-02-14 03:10:00,23.8,19.1,30.48,East,86,0.0,1.0,82,0.00,,,0.00,WeatherCatV1.11B39,2013-02-14 10:10:00,
2013-02-14 03:15:00,23.8,19.4,30.48,East,86,0.0,0.0,83,0.00,,,0.00,WeatherCatV1.11B39,2013-02-14 10:15:00,
2013-02-14 03:20:00,23.8,19.1,30.48,East,86,0.0,1.0,82,0.00,,,0.00,WeatherCatV1.11B39,2013-02-14 10:20:00,
2013-02-14 03:25:00,23.9,19.5,30.48,East,86,1.0,1.0,83,0.00,,,0.00,WeatherCatV1.11B39,2013-02-14 10:25:00,
2013-02-14 03:30:00,23.8,19.1,30.48,East,86,0.0,0.0,82,0.00,,,0.00,WeatherCatV1.11B39,2013-02-14 10:30:00,
2013-02-14 03:35:00,23.8,19.1,30.47,East,86,0.0,0.0,82,0.00,,,0.00,WeatherCatV1.11B39,2013-02-14 10:35:00,
2013-02-14 03:40:00,23.8,19.1,30.47,East,86,0.0,0.0,82,0.00,,,0.00,WeatherCatV1.11B39,2013-02-14 10:40:00,
2013-02-14 03:45:00,23.8,19.4,30.47,East,86,0.0,0.0,83,0.00,,,0.00,WeatherCatV1.11B39,2013-02-14 10:45:00,
2013-02-14 03:50:00,23.8,19.1,30.47,East,86,1.0,1.0,82,0.00,,,0.00,WeatherCatV1.11B39,2013-02-14 10:50:00,
2013-02-14 03:55:00,23.7,19.3,30.47,East,86,0.0,0.0,83,0.00,,,0.00,WeatherCatV1.11B39,2013-02-14 10:55:00,
2013-02-14 04:00:00,23.7,19.6,30.47,East,86,0.0,0.0,84,0.00,,,0.00,WeatherCatV1.11B39,2013-02-14 11:00:00,
2013-02-14 04:05:00,23.7,19.6,30.47,East,86,0.0,0.0,84,0.00,,,0.00,WeatherCatV1.11B39,2013-02-14 11:05:00,
2013-02-14 04:10:00,23.6,19.5,30.47,East,86,0.0,0.0,84,0.00,,,0.00,WeatherCatV1.11B39,2013-02-14 11:10:00,
2013-02-14 04:15:00,23.5,19.4,30.47,East,86,0.0,0.0,84,0.00,,,0.00,WeatherCatV1.11B39,2013-02-14 11:15:00,
2013-02-14 04:20:00,23.4,19.3,30.47,East,86,0.0,0.0,84,0.00,,,0.00,WeatherCatV1.11B39,2013-02-14 11:20:00,
2013-02-14 04:25:00,23.3,19.2,30.47,East,86,0.0,0.0,84,0.00,,,0.00,WeatherCatV1.11B39,2013-02-14 11:25:00,
2013-02-14 04:30:00,23.3,19.2,30.47,East,86,0.0,0.0,84,0.00,,,0.00,WeatherCatV1.11B39,2013-02-14 11:30:00,
2013-02-14 04:35:00,23.3,19.5,30.47,East,86,0.0,0.0,85,0.00,,,0.00,WeatherCatV1.11B39,2013-02-14 11:35:00,
2013-02-14 04:40:00,23.3,19.5,30.47,East,86,0.0,0.0,85,0.00,,,0.00,WeatherCatV1.11B39,2013-02-14 11:40:00,
2013-02-14 04:45:00,23.3,19.5,30.47,East,86,0.0,0.0,85,0.00,,,0.00,WeatherCatV1.11B39,2013-02-14 11:45:00,
2013-02-14 04:50:00,23.5,19.4,30.47,East,86,0.0,2.0,84,0.00,,,0.00,WeatherCatV1.11B39,2013-02-14 11:50:00,
2013-02-14 04:55:00,23.5,19.4,30.47,East,86,0.0,2.0,84,0.00,,,0.00,WeatherCatV1.11B39,2013-02-14 11:55:00,
2013-02-14 05:00:00,23.6,19.2,30.47,East,86,0.0,1.0,83,0.00,,,0.00,WeatherCatV1.11B39,2013-02-14 12:00:00,
2013-02-14 05:05:00,23.7,19.6,30.47,East,86,0.0,1.0,84,0.00,,,0.00,WeatherCatV1.11B39,2013-02-14 12:05:00,
2013-02-14 05:10:00,23.8,19.4,30.47,East,86,0.0,0.0,83,0.00,,,0.00,WeatherCatV1.11B39,2013-02-14 12:10:00,
2013-02-14 05:15:00,23.8,19.4,30.47,East,86,0.0,1.0,83,0.00,,,0.00,WeatherCatV1.11B39,2013-02-14 12:15:00,
2013-02-14 05:18:00,23.8,19.4,30.47,East,86,0.0,0.0,83,0.00,,,0.00,WeatherCatV1.11B39,2013-02-14 12:18:00,
2013-02-14 05:23:00,23.8,19.4,30.47,East,86,2.0,2.0,83,0.00,,,0.00,WeatherCatV1.11B39,2013-02-14 12:23:00,
2013-02-14 05:28:00,23.9,19.2,30.48,East,86,3.0,5.0,82,0.00,,,0.00,WeatherCatV1.11B39,2013-02-14 12:28:00,
2013-02-14 05:33:00,24.0,19.3,30.48,East,86,0.0,0.0,82,0.00,,,0.00,WeatherCatV1.11B39,2013-02-14 12:33:00,
2013-02-14 05:38:00,24.0,19.3,30.47,East,86,0.0,2.0,82,0.00,,,0.00,WeatherCatV1.11B39,2013-02-14 12:38:00,
2013-02-14 05:43:00,24.0,19.6,30.47,East,88,2.0,2.0,83,0.00,,,0.00,WeatherCatV1.11B39,2013-02-14 12:43:00,
2013-02-14 05:48:00,23.9,19.2,30.48,East,88,0.0,0.0,82,0.00,,,0.00,WeatherCatV1.11B39,2013-02-14 12:48:00,
2013-02-14 05:53:00,24.0,19.3,30.48,East,88,1.0,2.0,82,0.00,,,0.00,WeatherCatV1.11B39,2013-02-14 12:53:00,
2013-02-14 05:58:00,24.0,19.6,30.48,East,88,0.0,1.0,83,0.00,,,0.00,WeatherCatV1.11B39,2013-02-14 12:58:00,
2013-02-14 06:03:00,24.0,19.3,30.48,East,88,0.0,0.0,82,0.00,,,0.00,WeatherCatV1.11B39,2013-02-14 13:03:00,
2013-02-14 06:08:00,23.8,19.1,30.48,East,88,0.0,1.0,82,0.00,,,0.00,WeatherCatV1.11B39,2013-02-14 13:08:00,
2013-02-14 06:13:00,23.7,19.3,30.48,East,88,0.0,1.0,83,0.00,,,0.00,WeatherCatV1.11B39,2013-02-14 13:13:00,
2013-02-14 06:18:00,23.6,19.2,30.48,East,88,0.0,0.0,83,0.00,,,0.00,WeatherCatV1.11B39,2013-02-14 13:18:00,
2013-02-14 06:23:00,23.6,18.9,30.48,East,88,0.0,2.0,82,0.00,,,0.00,WeatherCatV1.11B39,2013-02-14 13:23:00,
2013-02-14 06:28:00,23.5,19.1,30.49,East,88,0.0,1.0,83,0.00,,,0.00,WeatherCatV1.11B39,2013-02-14 13:28:00,
2013-02-14 06:33:00,23.3,18.9,30.48,East,88,0.0,0.0,83,0.00,,,0.00,WeatherCatV1.11B39,2013-02-14 13:33:00,
2013-02-14 06:38:00,23.0,18.6,30.48,East,88,0.0,0.0,83,0.00,,,0.00,WeatherCatV1.11B39,2013-02-14 13:38:00,
2013-02-14 06:43:00,22.8,18.7,30.49,East,88,0.0,0.0,84,0.00,,,0.00,WeatherCatV1.11B39,2013-02-14 13:43:00,
2013-02-14 06:48:00,22.6,18.5,30.49,East,88,0.0,2.0,84,0.00,,,0.00,WeatherCatV1.11B39,2013-02-14 13:48:00,
2013-02-14 06:53:00,22.4,18.6,30.49,East,88,0.0,1.0,85,0.00,,,0.00,WeatherCatV1.11B39,2013-02-14 13:53:00,
2013-02-14 06:58:00,22.1,18.0,30.49,East,88,0.0,2.0,84,0.00,,,0.00,WeatherCatV1.11B39,2013-02-14 13:58:00,
2013-02-14 07:03:00,21.9,18.1,30.49,East,88,0.0,0.0,85,0.00,,,0.00,WeatherCatV1.11B39,2013-02-14 14:03:00,
2013-02-14 07:08:00,21.8,18.0,30.49,East,88,0.0,0.0,85,0.00,,,0.00,WeatherCatV1.11B39,2013-02-14 14:08:00,
2013-02-14 07:13:00,21.9,18.4,30.50,East,88,0.0,1.0,86,0.00,,,0.00,WeatherCatV1.11B39,2013-02-14 14:13:00,
2013-02-14 07:18:00,22.1,18.6,30.49,East,88,0.0,0.0,86,0.00,,,0.00,WeatherCatV1.11B39,2013-02-14 14:18:00,
2013-02-14 07:23:00,22.1,18.3,30.50,East,88,0.0,0.0,85,0.00,,,0.00,WeatherCatV1.11B39,2013-02-14 14:23:00,
2013-02-14 07:28:00,22.2,18.4,30.50,East,88,0.0,0.0,85,0.00,,,0.00,WeatherCatV1.11B39,2013-02-14 14:28:00,
2013-02-14 07:33:00,22.3,18.5,30.50,East,88,0.0,0.0,85,0.00,,,0.00,WeatherCatV1.11B39,2013-02-14 14:33:00,
2013-02-14 07:38:00,22.4,18.6,30.51,East,88,0.0,0.0,85,0.00,,,0.00,WeatherCatV1.11B39,2013-02-14 14:38:00,
2013-02-14 07:43:00,22.6,19.1,30.51,East,88,0.0,0.0,86,0.00,,,0.00,WeatherCatV1.11B39,2013-02-14 14:43:00,
2013-02-14 07:48:00,22.8,19.3,30.51,East,88,0.0,1.0,86,0.00,,,0.00,WeatherCatV1.11B39,2013-02-14 14:48:00,
2013-02-14 07:53:00,23.1,19.5,30.51,East,88,0.0,1.0,86,0.00,,,0.00,WeatherCatV1.11B39,2013-02-14 14:53:00,
2013-02-14 07:58:00,23.5,19.9,30.51,East,88,0.0,0.0,86,0.00,,,0.00,WeatherCatV1.11B39,2013-02-14 14:58:00,
2013-02-14 08:03:00,23.7,19.9,30.52,East,88,0.0,0.0,85,0.00,,,0.00,WeatherCatV1.11B39,2013-02-14 15:03:00,
2013-02-14 08:08:00,24.0,19.6,30.52,East,88,0.0,2.0,83,0.00,,,0.00,WeatherCatV1.11B39,2013-02-14 15:08:00,
2013-02-14 08:13:00,24.3,19.9,30.52,East,88,0.0,0.0,83,0.00,,,0.00,WeatherCatV1.11B39,2013-02-14 15:13:00,
2013-02-14 08:18:00,24.4,19.4,30.52,East,88,0.0,0.0,81,0.00,,,0.00,WeatherCatV1.11B39,2013-02-14 15:18:00,
2013-02-14 08:23:00,24.5,19.5,30.53,East,88,0.0,1.0,81,0.00,,,0.00,WeatherCatV1.11B39,2013-02-14 15:23:00,
2013-02-14 08:28:00,24.7,19.7,30.53,East,88,0.0,1.0,81,0.00,,,0.00,WeatherCatV1.11B39,2013-02-14 15:28:00,
2013-02-14 08:33:00,24.8,19.5,30.53,East,88,0.0,0.0,80,0.00,,,0.00,WeatherCatV1.11B39,2013-02-14 15:33:00,
2013-02-14 08:38:00,24.9,19.9,30.53,East,88,0.0,1.0,81,0.00,,,0.00,WeatherCatV1.11B39,2013-02-14 15:38:00,
2013-02-14 08:43:00,25.1,20.4,30.53,East,88,0.0,0.0,82,0.00,,,0.00,WeatherCatV1.11B39,2013-02-14 15:43:00,
2013-02-14 08:48:00,25.2,20.2,30.53,East,88,0.0,2.0,81,0.00,,,0.00,WeatherCatV1.11B39,2013-02-14 15:48:00,
2013-02-14 08:53:00,25.4,20.1,30.53,East,88,0.0,1.0,80,0.00,,,0.00,WeatherCatV1.11B39,2013-02-14 15:53:00,
2013-02-14 08:58:00,25.9,20.6,30.53,East,88,0.0,0.0,80,0.00,,,0.00,WeatherCatV1.11B39,2013-02-14 15:58:00,
2013-02-14 09:03:00,26.3,20.7,30.53,East,88,0.0,0.0,79,0.00,,,0.00,WeatherCatV1.11B39,2013-02-14 16:03:00,
2013-02-14 09:08:00,27.0,21.1,30.52,East,88,0.0,1.0,78,0.00,,,0.00,WeatherCatV1.11B39,2013-02-14 16:08:00,
2013-02-14 09:13:00,27.9,21.6,30.52,East,88,0.0,0.0,77,0.00,,,0.00,WeatherCatV1.11B39,2013-02-14 16:13:00,
2013-02-14 09:18:00,28.7,21.8,30.52,East,88,0.0,0.0,75,0.00,,,0.00,WeatherCatV1.11B39,2013-02-14 16:18:00,
2013-02-14 09:23:00,29.6,21.7,30.52,East,85,3.0,5.0,72,0.00,,,0.00,WeatherCatV1.11B39,2013-02-14 16:23:00,
2013-02-14 09:28:00,29.9,21.7,30.52,East,82,2.0,5.0,71,0.00,,,0.00,WeatherCatV1.11B39,2013-02-14 16:28:00,
2013-02-14 09:33:00,30.1,21.5,30.52,East,82,0.0,3.0,70,0.00,,,0.00,WeatherCatV1.11B39,2013-02-14 16:33:00,
2013-02-14 09:38:00,30.1,21.5,30.52,East,82,0.0,0.0,70,0.00,,,0.00,WeatherCatV1.11B39,2013-02-14 16:38:00,
2013-02-14 09:43:00,30.6,22.0,30.52,East,82,1.0,3.0,70,0.00,,,0.00,WeatherCatV1.11B39,2013-02-14 16:43:00,
2013-02-14 09:48:00,30.9,21.6,30.52,ESE,105,0.0,2.0,68,0.00,,,0.00,WeatherCatV1.11B39,2013-02-14 16:48:00,
2013-02-14 09:53:00,31.0,21.7,30.52,SSE,154,0.0,1.0,68,0.00,,,0.00,WeatherCatV1.11B39,2013-02-14 16:53:00,
2013-02-14 09:58:00,31.4,22.4,30.52,SSE,155,0.0,2.0,69,0.00,,,0.00,WeatherCatV1.11B39,2013-02-14 16:58:00,
2013-02-14 10:03:00,31.6,22.3,30.52,SSE,155,0.0,2.0,68,0.00,,,0.00,WeatherCatV1.11B39,2013-02-14 17:03:00,
2013-02-14 10:08:00,31.9,22.2,30.52,SSE,155,0.0,0.0,67,0.00,,,0.00,WeatherCatV1.11B39,2013-02-14 17:08:00,
2013-02-14 10:13:00,32.1,21.7,30.52,SSE,155,0.0,2.0,65,0.00,,,0.00,WeatherCatV1.11B39,2013-02-14 17:13:00,
2013-02-14 10:18:00,32.1,21.7,30.52,SSE,155,0.0,1.0,65,0.00,,,0.00,WeatherCatV1.11B39,2013-02-14 17:18:00,
2013-02-14 10:23:00,32.7,22.6,30.52,SSE,156,0.0,1.0,66,0.00,,,0.00,WeatherCatV1.11B39,2013-02-14 17:23:00,
2013-02-14 10:28:00,33.5,22.3,30.52,SW,223,1.0,1.0,63,0.00,,,0.00,WeatherCatV1.11B39,2013-02-14 17:28:00,
2013-02-14 10:33:00,33.9,22.7,30.52,SW,225,1.0,2.0,63,0.00,,,0.00,WeatherCatV1.11B39,2013-02-14 17:33:00,
2013-02-14 10:38:00,34.4,22.7,30.53,WNW,289,3.0,5.0,62,0.00,,,0.00,WeatherCatV1.11B39,2013-02-14 17:38:00,
2013-02-14 10:43:00,35.1,23.4,30.52,NW,309,1.0,9.0,62,0.00,,,0.00,WeatherCatV1.11B39,2013-02-14 17:43:00,
2013-02-14 10:48:00,36.1,24.0,30.52,WNW,297,3.0,6.0,61,0.00,,,0.00,WeatherCatV1.11B39,2013-02-14 17:48:00,
2013-02-14 10:53:00,37.1,23.7,30.52,WNW,295,4.0,9.0,58,0.00,,,0.00,WeatherCatV1.11B39,2013-02-14 17:53:00,
2013-02-14 10:58:00,38.0,24.1,30.52,WNW,286,6.0,7.0,57,0.00,,,0.00,WeatherCatV1.11B39,2013-02-14 17:58:00,
2013-02-14 11:03:00,38.2,23.5,30.52,WSW,248,4.0,12.0,55,0.00,,,0.00,WeatherCatV1.11B39,2013-02-14 18:03:00,
2013-02-14 11:08:00,37.8,23.5,30.52,WNW,289,5.0,10.0,56,0.00,,,0.00,WeatherCatV1.11B39,2013-02-14 18:08:00,
2013-02-14 11:13:00,37.4,23.6,30.53,SW,235,4.0,5.0,57,0.00,,,0.00,WeatherCatV1.11B39,2013-02-14 18:13:00,
2013-02-14 11:18:00,37.0,22.8,30.53,WSW,257,3.0,7.0,56,0.00,,,0.00,WeatherCatV1.11B39,2013-02-14 18:18:00,
2013-02-14 11:23:00,37.0,23.2,30.52,WNW,296,5.0,10.0,57,0.00,,,0.00,WeatherCatV1.11B39,2013-02-14 18:23:00,
2013-02-14 11:28:00,37.7,23.9,30.53,WNW,288,6.0,11.0,57,0.00,,,0.00,WeatherCatV1.11B39,2013-02-14 18:28:00,
2013-02-14 11:33:00,38.4,23.7,30.52,West,262,13.0,13.0,55,0.00,,,0.00,WeatherCatV1.11B39,2013-02-14 18:33:00,
2013-02-14 11:38:00,38.9,24.1,30.52,West,277,10.0,13.0,55,0.00,,,0.00,WeatherCatV1.11B39,2013-02-14 18:38:00,
2013-02-14 11:43:00,39.1,23.9,30.52,WNW,287,9.0,12.0,54,0.00,,,0.00,WeatherCatV1.11B39,2013-02-14 18:43:00,
2013-02-14 11:48:00,39.5,24.2,30.52,WNW,302,11.0,15.0,54,0.00,,,0.00,WeatherCatV1.11B39,2013-02-14 18:48:00,
2013-02-14 11:53:00,39.7,24.4,30.52,WNW,287,7.0,9.0,54,0.00,,,0.00,WeatherCatV1.11B39,2013-02-14 18:53:00,
2013-02-14 11:58:00,40.0,24.3,30.52,West,281,9.0,12.0,53,0.00,,,0.00,WeatherCatV1.11B39,2013-02-14 18:58:00,
2013-02-14 12:03:00,40.0,23.8,30.51,WSW,255,5.0,10.0,52,0.00,,,0.00,WeatherCatV1.11B39,2013-02-14 19:03:00,
2013-02-14 12:08:00,40.2,24.5,30.51,WNW,296,8.0,13.0,53,0.00,,,0.00,WeatherCatV1.11B39,2013-02-14 19:08:00,
2013-02-14 12:13:00,40.3,24.5,30.51,West,280,4.0,12.0,53,0.00,,,0.00,WeatherCatV1.11B39,2013-02-14 19:13:00,
2013-02-14 12:18:00,39.9,24.2,30.50,WNW,300,5.0,10.0,53,0.00,,,0.00,WeatherCatV1.11B39,2013-02-14 19:18:00,
2013-02-14 12:23:00,40.1,24.4,30.50,WNW,299,6.0,8.0,53,0.00,,,0.00,WeatherCatV1.11B39,2013-02-14 19:23:00,
2013-02-14 12:28:00,40.7,24.9,30.49,West,267,5.0,9.0,53,0.00,,,0.00,WeatherCatV1.11B39,2013-02-14 19:28:00,
2013-02-14 12:33:00,41.1,24.4,30.49,WNW,294,4.0,13.0,51,0.00,,,0.00,WeatherCatV1.11B39,2013-02-14 19:33:00,
2013-02-14 12:38:00,41.4,24.2,30.49,WNW,296,5.0,11.0,50,0.00,,,0.00,WeatherCatV1.11B39,2013-02-14 19:38:00,
2013-02-14 12:43:00,41.6,24.4,30.48,West,262,6.0,10.0,50,0.00,,,0.00,WeatherCatV1.11B39,2013-02-14 19:43:00,
2013-02-14 12:48:00,41.4,23.7,30.48,WSW,238,4.0,11.0,49,0.00,,,0.00,WeatherCatV1.11B39,2013-02-14 19:48:00,
2013-02-14 12:53:00,41.2,24.5,30.47,West,273,4.0,8.0,51,0.00,,,0.00,WeatherCatV1.11B39,2013-02-14 19:53:00,
2013-02-14 12:58:00,41.5,24.7,30.47,WNW,293,2.0,11.0,51,0.00,,,0.00,WeatherCatV1.11B39,2013-02-14 19:58:00,
2013-02-14 13:03:00,41.4,23.7,30.47,WSW,255,3.0,14.0,49,0.00,,,0.00,WeatherCatV1.11B39,2013-02-14 20:03:00,
2013-02-14 13:08:00,41.0,23.8,30.47,WSW,254,5.0,14.0,50,0.00,,,0.00,WeatherCatV1.11B39,2013-02-14 20:08:00,
2013-02-14 13:13:00,40.6,23.9,30.47,West,265,7.0,14.0,51,0.00,,,0.00,WeatherCatV1.11B39,2013-02-14 20:13:00,
2013-02-14 13:18:00,40.9,24.6,30.47,WNW,287,3.0,10.0,52,0.00,,,0.00,WeatherCatV1.11B39,2013-02-14 20:18:00,
2013-02-14 13:23:00,41.2,24.9,30.47,WNW,297,6.0,8.0,52,0.00,,,0.00,WeatherCatV1.11B39,2013-02-14 20:23:00,
2013-02-14 13:28:00,41.2,24.0,30.47,West,263,7.0,16.0,50,0.00,,,0.00,WeatherCatV1.11B39,2013-02-14 20:28:00,
2013-02-14 13:33:00,41.3,25.0,30.47,WSW,254,6.0,12.0,52,0.00,,,0.00,WeatherCatV1.11B39,2013-02-14 20:33:00,
2013-02-14 13:38:00,41.3,24.1,30.47,West,275,10.0,15.0,50,0.00,,,0.00,WeatherCatV1.11B39,2013-02-14 20:38:00,
2013-02-14 13:43:00,41.4,24.2,30.47,West,271,6.0,12.0,50,0.00,,,0.00,WeatherCatV1.11B39,2013-02-14 20:43:00,
2013-02-14 13:48:00,41.3,23.6,30.47,WNW,288,5.0,13.0,49,0.00,,,0.00,WeatherCatV1.11B39,2013-02-14 20:48:00,
2013-02-14 13:53:00,41.2,24.0,30.47,West,260,5.0,11.0,50,0.00,,,0.00,WeatherCatV1.11B39,2013-02-14 20:53:00,
2013-02-14 13:58:00,41.3,23.6,30.47,West,277,11.0,11.0,49,0.00,,,0.00,WeatherCatV1.11B39,2013-02-14 20:58:00,
2013-02-14 14:03:00,41.1,23.4,30.46,West,267,6.0,10.0,49,0.00,,,0.00,WeatherCatV1.11B39,2013-02-14 21:03:00,
2013-02-14 14:08:00,41.5,22.8,30.46,West,281,6.0,9.0,47,0.00,,,0.00,WeatherCatV1.11B39,2013-02-14 21:08:00,
2013-02-14 14:13:00,42.0,22.2,30.46,West,267,9.0,9.0,45,0.00,,,0.00,WeatherCatV1.11B39,2013-02-14 21:13:00,
2013-02-14 14:18:00,42.4,23.1,30.46,West,263,7.0,8.0,46,0.00,,,0.00,WeatherCatV1.11B39,2013-02-14 21:18:00,
2013-02-14 14:23:00,42.4,22.0,30.47,NW,304,2.0,9.0,44,0.00,,,0.00,WeatherCatV1.11B39,2013-02-14 21:23:00,
2013-02-14 14:28:00,41.9,19.9,30.47,West,269,4.0,8.0,41,0.00,,,0.00,WeatherCatV1.11B39,2013-02-14 21:28:00,
2013-02-14 14:33:00,41.0,19.1,30.48,NW,311,11.0,11.0,41,0.00,,,0.00,WeatherCatV1.11B39,2013-02-14 21:33:00,
2013-02-14 14:38:00,40.3,18.5,30.48,NW,318,8.0,8.0,41,0.00,,,0.00,WeatherCatV1.11B39,2013-02-14 21:38:00,
2013-02-14 14:43:00,39.6,17.9,30.48,WNW,288,3.0,5.0,41,0.00,,,0.00,WeatherCatV1.11B39,2013-02-14 21:43:00,
2013-02-14 14:48:00,39.1,18.5,30.48,NW,310,8.0,10.0,43,0.00,,,0.00,WeatherCatV1.11B39,2013-02-14 21:48:00,
2013-02-14 14:53:00,38.7,19.2,30.48,WNW,293,4.0,6.0,45,0.00,,,0.00,WeatherCatV1.11B39,2013-02-14 21:53:00,
2013-02-14 14:58:00,38.6,18.6,30.48,WNW,283,0.0,2.0,44,0.00,,,0.00,WeatherCatV1.11B39,2013-02-14 21:58:00,
2013-02-14 15:03:00,39.0,19.5,30.48,WNW,294,1.0,6.0,45,0.00,,,0.00,WeatherCatV1.11B39,2013-02-14 22:03:00,
2013-02-14 15:08:00,39.9,18.1,30.48,West,272,3.0,5.0,41,0.00,,,0.00,WeatherCatV1.11B39,2013-02-14 22:08:00,
2013-02-14 15:13:00,40.8,18.4,30.48,NW,311,3.0,8.0,40,0.00,,,0.00,WeatherCatV1.11B39,2013-02-14 22:13:00,
2013-02-14 15:18:00,41.5,17.2,30.48,SW,230,6.0,13.0,37,0.00,,,0.00,WeatherCatV1.11B39,2013-02-14 22:18:00,
2013-02-14 15:23:00,41.8,16.8,30.48,WNW,298,4.0,17.0,36,0.00,,,0.00,WeatherCatV1.11B39,2013-02-14 22:23:00,
2013-02-14 15:28:00,41.6,16.6,30.49,West,269,7.0,17.0,36,0.00,,,0.00,WeatherCatV1.11B39,2013-02-14 22:28:00,
2013-02-14 15:33:00,41.4,16.5,30.49,WSW,253,6.0,7.0,36,0.00,,,0.00,WeatherCatV1.11B39,2013-02-14 22:33:00,
2013-02-14 15:38:00,41.1,16.2,30.49,WNW,286,10.0,11.0,36,0.00,,,0.00,WeatherCatV1.11B39,2013-02-14 22:38:00,
2013-02-14 15:43:00,40.8,15.9,30.49,West,272,12.0,12.0,36,0.00,,,0.00,WeatherCatV1.11B39,2013-02-14 22:43:00,
2013-02-14 15:48:00,40.8,15.9,30.49,WNW,302,6.0,8.0,36,0.00,,,0.00,WeatherCatV1.11B39,2013-02-14 22:48:00,
2013-02-14 15:53:00,40.7,14.5,30.49,NW,310,6.0,9.0,34,0.00,,,0.00,WeatherCatV1.11B39,2013-02-14 22:53:00,
2013-02-14 15:58:00,40.7,13.9,30.49,WNW,289,9.0,17.0,33,0.00,,,0.00,WeatherCatV1.11B39,2013-02-14 22:58:00,
2013-02-14 16:03:00,40.3,13.5,30.49,WNW,299,12.0,16.0,33,0.00,,,0.00,WeatherCatV1.11B39,2013-02-14 23:03:00,
2013-02-14 16:08:00,40.0,14.6,30.49,WNW,296,7.0,17.0,35,0.00,,,0.00,WeatherCatV1.11B39,2013-02-14 23:08:00,
2013-02-14 16:13:00,39.7,15.0,30.49,West,268,4.0,11.0,36,0.00,,,0.00,WeatherCatV1.11B39,2013-02-14 23:13:00,
2013-02-14 16:18:00,39.7,15.0,30.50,NW,311,3.0,12.0,36,0.00,,,0.00,WeatherCatV1.11B39,2013-02-14 23:18:00,
2013-02-14 16:23:00,39.5,14.8,30.50,WNW,296,8.0,12.0,36,0.00,,,0.00,WeatherCatV1.11B39,2013-02-14 23:23:00,
2013-02-14 16:28:00,38.8,15.4,30.50,WNW,290,9.0,12.0,38,0.00,,,0.00,WeatherCatV1.11B39,2013-02-14 23:28:00,
2013-02-14 16:33:00,37.9,14.6,30.50,NW,319,2.0,12.0,38,0.00,,,0.00,WeatherCatV1.11B39,2013-02-14 23:33:00,
2013-02-14 16:38:00,37.2,14.6,30.50,WNW,302,9.0,13.0,39,0.00,,,0.00,WeatherCatV1.11B39,2013-02-14 23:38:00,
2013-02-14 16:43:00,36.7,14.1,30.50,NNW,338,5.0,10.0,39,0.00,,,0.00,WeatherCatV1.11B39,2013-02-14 23:43:00,
2013-02-14 16:48:00,36.2,14.2,30.50,NW,304,7.0,12.0,40,0.00,,,0.00,WeatherCatV1.11B39,2013-02-14 23:48:00,
2013-02-14 16:53:00,35.7,13.8,30.50,WNW,286,4.0,10.0,40,0.00,,,0.00,WeatherCatV1.11B39,2013-02-14 23:53:00,
2013-02-14 16:58:00,35.4,14.1,30.51,NW,315,6.0,11.0,41,0.00,,,0.00,WeatherCatV1.11B39,2013-02-14 23:58:00,
2013-02-14 17:03:00,35.1,13.8,30.51,West,273,6.0,10.0,41,0.00,,,0.00,WeatherCatV1.11B39,2013-02-15 00:03:00,
2013-02-14 17:08:00,34.9,14.2,30.51,WNW,288,4.0,7.0,42,0.00,,,0.00,WeatherCatV1.11B39,2013-02-15 00:08:00,
2013-02-14 17:13:00,34.7,13.4,30.51,WNW,287,10.0,10.0,41,0.00,,,0.00,WeatherCatV1.11B39,2013-02-15 00:13:00,
2013-02-14 17:18:00,34.5,13.3,30.51,NW,322,8.0,13.0,41,0.00,,,0.00,WeatherCatV1.11B39,2013-02-15 00:18:00,
2013-02-14 17:23:00,34.3,13.6,30.51,WNW,286,6.0,13.0,42,0.00,,,0.00,WeatherCatV1.11B39,2013-02-15 00:23:00,
2013-02-14 17:28:00,34.1,13.4,30.51,NW,306,4.0,15.0,42,0.00,,,0.00,WeatherCatV1.11B39,2013-02-15 00:28:00,
2013-02-14 17:33:00,33.9,13.3,30.51,WNW,288,4.0,9.0,42,0.00,,,0.00,WeatherCatV1.11B39,2013-02-15 00:33:00,
2013-02-14 17:38:00,33.8,12.1,30.51,NW,305,7.0,11.0,40,0.00,,,0.00,WeatherCatV1.11B39,2013-02-15 00:38:00,
2013-02-14 17:43:00,33.7,12.5,30.52,SW,234,0.0,3.0,41,0.00,,,0.00,WeatherCatV1.11B39,2013-02-15 00:43:00,
2013-02-14 17:48:00,33.4,13.3,30.52,SW,235,0.0,3.0,43,0.00,,,0.00,WeatherCatV1.11B39,2013-02-15 00:48:00,
2013-02-14 17:53:00,33.0,14.0,30.52,SW,235,2.0,2.0,45,0.00,,,0.00,WeatherCatV1.11B39,2013-02-15 00:53:00,
2013-02-14 17:58:00,32.5,14.0,30.52,SW,234,0.0,3.0,46,0.00,,,0.00,WeatherCatV1.11B39,2013-02-15 00:58:00,
2013-02-14 18:03:00,32.1,14.2,30.52,SW,229,0.0,4.0,47,0.00,,,0.00,WeatherCatV1.11B39,2013-02-15 01:03:00,
2013-02-14 18:08:00,31.7,14.3,30.52,West,260,0.0,1.0,48,0.00,,,0.00,WeatherCatV1.11B39,2013-02-15 01:08:00,
2013-02-14 18:13:00,31.5,14.1,30.52,WSW,257,1.0,3.0,48,0.00,,,0.00,WeatherCatV1.11B39,2013-02-15 01:13:00,
2013-02-14 18:18:00,31.3,14.8,30.53,West,269,1.0,3.0,50,0.00,,,0.00,WeatherCatV1.11B39,2013-02-15 01:18:00,
2013-02-14 18:23:00,31.1,15.6,30.53,West,269,0.0,2.0,52,0.00,,,0.00,WeatherCatV1.11B39,2013-02-15 01:23:00,
2013-02-14 18:28:00,30.8,14.8,30.53,West,269,1.0,2.0,51,0.00,,,0.00,WeatherCatV1.11B39,2013-02-15 01:28:00,
2013-02-14 18:33:00,30.4,14.5,30.54,West,269,0.0,0.0,51,0.00,,,0.00,WeatherCatV1.11B39,2013-02-15 01:33:00,
2013-02-14 18:38:00,30.1,14.6,30.54,West,269,1.0,2.0,52,0.00,,,0.00,WeatherCatV1.11B39,2013-02-15 01:38:00,
2013-02-14 18:43:00,29.7,14.7,30.54,West,269,0.0,0.0,53,0.00,,,0.00,WeatherCatV1.11B39,2013-02-15 01:43:00,
2013-02-14 18:48:00,29.4,14.4,30.54,West,269,0.0,1.0,53,0.00,,,0.00,WeatherCatV1.11B39,2013-02-15 01:48:00,
2013-02-14 18:53:00,29.2,15.1,30.54,West,269,0.0,2.0,55,0.00,,,0.00,WeatherCatV1.11B39,2013-02-15 01:53:00,
2013-02-14 18:58:00,29.0,14.0,30.54,West,269,0.0,0.0,53,0.00,,,0.00,WeatherCatV1.11B39,2013-02-15 01:58:00,
2013-02-14 19:03:00,28.8,15.9,30.54,West,269,0.0,0.0,58,0.00,,,0.00,WeatherCatV1.11B39,2013-02-15 02:03:00,
2013-02-14 19:08:00,28.5,15.2,30.54,West,269,0.0,0.0,57,0.00,,,0.00,WeatherCatV1.11B39,2013-02-15 02:08:00,
2013-02-14 19:13:00,28.3,15.8,30.54,West,269,0.0,0.0,59,0.00,,,0.00,WeatherCatV1.11B39,2013-02-15 02:13:00,
2013-02-14 19:18:00,28.0,15.2,30.54,West,268,0.0,5.0,58,0.00,,,0.00,WeatherCatV1.11B39,2013-02-15 02:18:00,
2013-02-14 19:23:00,27.8,15.0,30.54,West,268,1.0,3.0,58,0.00,,,0.00,WeatherCatV1.11B39,2013-02-15 02:23:00,
2013-02-14 19:28:00,27.8,14.6,30.55,West,268,0.0,0.0,57,0.00,,,0.00,WeatherCatV1.11B39,2013-02-15 02:28:00,
2013-02-14 19:33:00,27.8,14.2,30.55,West,268,0.0,3.0,56,0.00,,,0.00,WeatherCatV1.11B39,2013-02-15 02:33:00,
2013-02-14 19:38:00,27.9,14.3,30.55,West,268,1.0,3.0,56,0.00,,,0.00,WeatherCatV1.11B39,2013-02-15 02:38:00,
2013-02-14 19:43:00,28.1,15.3,30.55,West,281,0.0,0.0,58,0.00,,,0.00,WeatherCatV1.11B39,2013-02-15 02:43:00,
2013-02-14 19:48:00,28.1,16.8,30.54,West,281,0.0,0.0,62,0.00,,,0.00,WeatherCatV1.11B39,2013-02-15 02:48:00,
2013-02-14 19:53:00,28.0,16.3,30.54,West,281,0.0,1.0,61,0.00,,,0.00,WeatherCatV1.11B39,2013-02-15 02:53:00,
2013-02-14 19:58:00,27.9,15.8,30.54,NE,45,1.0,3.0,60,0.00,,,0.00,WeatherCatV1.11B39,2013-02-15 02:58:00,
2013-02-14 20:03:00,27.7,16.0,30.54,NE,55,0.0,0.0,61,0.00,,,0.00,WeatherCatV1.11B39,2013-02-15 03:03:00,
2013-02-14 20:08:00,27.6,15.9,30.54,ESE,111,0.0,2.0,61,0.00,,,0.00,WeatherCatV1.11B39,2013-02-15 03:08:00,
2013-02-14 20:13:00,27.6,17.4,30.54,ESE,113,0.0,0.0,65,0.00,,,0.00,WeatherCatV1.11B39,2013-02-15 03:13:00,
2013-02-14 20:18:00,27.5,16.9,30.54,ESE,112,0.0,0.0,64,0.00,,,0.00,WeatherCatV1.11B39,2013-02-15 03:18:00,
2013-02-14 20:23:00,27.5,17.7,30.54,East,92,0.0,0.0,66,0.00,,,0.00,WeatherCatV1.11B39,2013-02-15 03:23:00,
2013-02-14 20:28:00,27.5,17.3,30.54,East,92,0.0,0.0,65,0.00,,,0.00,WeatherCatV1.11B39,2013-02-15 03:28:00,
2013-02-14 20:33:00,27.4,18.3,30.54,East,92,0.0,0.0,68,0.00,,,0.00,WeatherCatV1.11B39,2013-02-15 03:33:00,
2013-02-14 20:38:00,27.2,18.4,30.54,East,95,0.0,0.0,69,0.00,,,0.00,WeatherCatV1.11B39,2013-02-15 03:38:00,
2013-02-14 20:43:00,27.1,17.3,30.55,East,95,0.0,1.0,66,0.00,,,0.00,WeatherCatV1.11B39,2013-02-15 03:43:00,
2013-02-14 20:48:00,27.1,16.6,30.54,East,94,0.0,1.0,64,0.00,,,0.00,WeatherCatV1.11B39,2013-02-15 03:48:00,
2013-02-14 20:53:00,27.1,16.9,30.55,East,94,0.0,1.0,65,0.00,,,0.00,WeatherCatV1.11B39,2013-02-15 03:53:00,
2013-02-14 20:58:00,27.1,16.9,30.55,East,94,0.0,0.0,65,0.00,,,0.00,WeatherCatV1.11B39,2013-02-15 03:58:00,
2013-02-14 21:03:00,27.1,17.3,30.55,East,94,1.0,2.0,66,0.00,,,0.00,WeatherCatV1.11B39,2013-02-15 04:03:00,
2013-02-14 21:08:00,27.0,17.5,30.55,NNE,13,0.0,0.0,67,0.00,,,0.00,WeatherCatV1.11B39,2013-02-15 04:08:00,
2013-02-14 21:13:00,27.0,17.2,30.55,NNE,30,2.0,2.0,66,0.00,,,0.00,WeatherCatV1.11B39,2013-02-15 04:13:00,
2013-02-14 21:18:00,26.9,16.7,30.55,NNE,27,0.0,0.0,65,0.00,,,0.00,WeatherCatV1.11B39,2013-02-15 04:18:00,
2013-02-14 21:23:00,26.8,17.0,30.55,NNE,22,0.0,0.0,66,0.00,,,0.00,WeatherCatV1.11B39,2013-02-15 04:23:00,
2013-02-14 21:28:00,26.8,17.3,30.55,West,265,0.0,0.0,67,0.00,,,0.00,WeatherCatV1.11B39,2013-02-15 04:28:00,
2013-02-14 21:33:00,26.9,17.4,30.55,West,265,0.0,0.0,67,0.00,,,0.00,WeatherCatV1.11B39,2013-02-15 04:33:00,
2013-02-14 21:38:00,26.9,17.4,30.56,West,265,1.0,2.0,67,0.00,,,0.00,WeatherCatV1.11B39,2013-02-15 04:38:00,
2013-02-14 21:43:00,27.1,16.6,30.55,SW,221,1.0,2.0,64,0.00,,,0.00,WeatherCatV1.11B39,2013-02-15 04:43:00,
2013-02-14 21:48:00,27.8,16.5,30.55,SW,221,0.0,1.0,62,0.00,,,0.00,WeatherCatV1.11B39,2013-02-15 04:48:00,
2013-02-14 21:53:00,28.3,17.7,30.55,SW,221,1.0,2.0,64,0.00,,,0.00,WeatherCatV1.11B39,2013-02-15 04:53:00,
2013-02-14 21:58:00,28.6,16.9,30.56,WSW,246,4.0,4.0,61,0.00,,,0.00,WeatherCatV1.11B39,2013-02-15 04:58:00,
2013-02-14 22:00:00,28.7,17.0,30.56,WSW,258,3.0,4.0,61,0.00,,,0.00,WeatherCatV1.11B39,2013-02-15 05:00:00,
2013-02-14 22:05:00,29.0,16.9,30.56,West,261,3.0,4.0,60,0.00,,,0.00,WeatherCatV1.11B39,2013-02-15 05:05:00,
2013-02-14 22:10:00,29.3,17.2,30.56,West,262,0.0,4.0,60,0.00,,,0.00,WeatherCatV1.11B39,2013-02-15 05:10:00,
2013-02-14 22:15:00,29.6,17.1,30.55,West,262,0.0,3.0,59,0.00,,,0.00,WeatherCatV1.11B39,2013-02-15 05:15:00,
2013-02-14 22:20:00,29.7,17.1,30.55,West,262,0.0,2.0,59,0.00,,,0.00,WeatherCatV1.11B39,2013-02-15 05:20:00,
2013-02-14 22:25:00,29.7,17.5,30.56,West,262,0.0,0.0,60,0.00,,,0.00,WeatherCatV1.11B39,2013-02-15 05:25:00,
2013-02-14 22:30:00,29.6,18.2,30.55,West,262,0.0,0.0,62,0.00,,,0.00,WeatherCatV1.11B39,2013-02-15 05:30:00,
2013-02-14 22:35:00,29.4,17.3,30.55,West,262,0.0,0.0,60,0.00,,,0.00,WeatherCatV1.11B39,2013-02-15 05:35:00,
2013-02-14 22:40:00,29.3,17.9,30.55,West,262,4.0,4.0,62,0.00,,,0.00,WeatherCatV1.11B39,2013-02-15 05:40:00,
2013-02-14 22:45:00,29.0,17.3,30.55,West,263,0.0,4.0,61,0.00,,,0.00,WeatherCatV1.11B39,2013-02-15 05:45:00,
2013-02-14 22:50:00,28.8,17.1,30.56,West,263,2.0,3.0,61,0.00,,,0.00,WeatherCatV1.11B39,2013-02-15 05:50:00,
2013-02-14 22:55:00,28.9,17.2,30.56,West,269,1.0,2.0,61,0.00,,,0.00,WeatherCatV1.11B39,2013-02-15 05:55:00,
2013-02-14 23:00:00,29.1,17.4,30.56,WSW,242,2.0,2.0,61,0.00,,,0.00,WeatherCatV1.11B39,2013-02-15 06:00:00,
2013-02-14 23:05:00,29.3,17.5,30.56,West,267,5.0,5.0,61,0.00,,,0.00,WeatherCatV1.11B39,2013-02-15 06:05:00,
2013-02-14 23:10:00,29.5,17.7,30.56,West,263,4.0,4.0,61,0.00,,,0.00,WeatherCatV1.11B39,2013-02-15 06:10:00,
2013-02-14 23:15:00,29.7,17.9,30.57,SSW,198,1.0,7.0,61,0.00,,,0.00,WeatherCatV1.11B39,2013-02-15 06:15:00,
2013-02-14 23:20:00,29.8,18.0,30.57,SW,232,1.0,8.0,61,0.00,,,0.00,WeatherCatV1.11B39,2013-02-15 06:20:00,
2013-02-14 23:25:00,29.9,17.7,30.57,WSW,250,5.0,8.0,60,0.00,,,0.00,WeatherCatV1.11B39,2013-02-15 06:25:00,
2013-02-14 23:30:00,29.9,18.1,30.57,WSW,254,5.0,11.0,61,0.00,,,0.00,WeatherCatV1.11B39,2013-02-15 06:30:00,
2013-02-14 23:35:00,29.8,18.4,30.57,West,273,7.0,12.0,62,0.00,,,0.00,WeatherCatV1.11B39,2013-02-15 06:35:00,
2013-02-14 23:40:00,29.6,18.6,30.57,West,259,2.0,5.0,63,0.00,,,0.00,WeatherCatV1.11B39,2013-02-15 06:40:00,
2013-02-14 23:45:00,29.3,18.7,30.57,West,263,0.0,4.0,64,0.00,,,0.00,WeatherCatV1.11B39,2013-02-15 06:45:00,
2013-02-14 23:50:00,29.0,18.4,30.57,West,281,2.0,2.0,64,0.00,,,0.00,WeatherCatV1.11B39,2013-02-15 06:50:00,
2013-02-14 23:55:00,28.7,17.7,30.57,West,270,2.0,5.0,63,0.00,,,0.00,WeatherCatV1.11B39,2013-02-15 06:55:00,